Time;durP1;ratioP1;P1;durP2;ratioP2;P2;SDS_P1;SDS_P2;PMS_P1;PMS_P2;Temp;Humidity;BMP_temperature;BMP_pressure;BME280_temperature;BME280_humidity;BME280_pressure;Samples;Min_cycle;Max_cycle;Signal;HPM_P1;HPM_P2
2021/03/31 00:00:55;;;;;;;22.90;18.40;;;12.60;99.90;;;;;;5052651;28;20441;-44
2021/03/31 00:03:22;;;;;;;25.53;18.97;;;13.40;99.90;;;;;;5050918;28;20858;-45
2021/03/31 00:05:48;;;;;;;32.20;20.87;;;12.70;99.90;;;;;;5052967;28;20863;-45
2021/03/31 00:08:15;;;;;;;24.83;17.00;;;13.10;99.90;;;;;;5052097;28;20459;-45
2021/03/31 00:10:44;;;;;;;31.13;18.50;;;12.60;99.90;;;;;;5052461;28;20605;-45
2021/03/31 00:13:11;;;;;;;33.10;18.37;;;12.80;99.90;;;;;;5052156;28;20808;-45
2021/03/31 00:15:39;;;;;;;28.40;20.50;;;12.80;99.90;;;;;;5052365;28;20497;-44
2021/03/31 00:18:06;;;;;;;31.57;18.97;;;12.90;99.90;;;;;;5052066;28;20453;-45
2021/03/31 00:20:33;;;;;;;22.23;18.20;;;12.70;99.90;;;;;;5052257;28;20817;-45
2021/03/31 00:23:01;;;;;;;27.10;19.30;;;12.60;99.90;;;;;;5052109;28;20768;-45
2021/03/31 00:25:27;;;;;;;30.87;19.20;;;12.80;99.90;;;;;;5052240;28;20924;-45
2021/03/31 00:27:53;;;;;;;33.97;19.17;;;12.50;99.90;;;;;;5051944;28;20986;-45
2021/03/31 00:30:20;;;;;;;29.77;18.97;;;12.90;99.90;;;;;;5052052;28;20490;-45
2021/03/31 00:32:47;;;;;;;28.83;18.70;;;12.60;99.90;;;;;;5051715;28;20426;-45
2021/03/31 00:35:14;;;;;;;35.80;19.70;;;12.60;99.90;;;;;;5051889;28;20803;-45
2021/03/31 00:37:40;;;;;;;30.67;19.90;;;12.40;99.90;;;;;;5051629;28;20467;-45
2021/03/31 00:40:10;;;;;;;29.73;18.87;;;12.70;99.90;;;;;;5051884;28;20441;-45
2021/03/31 00:42:36;;;;;;;24.30;17.70;;;12.30;99.90;;;;;;5051609;28;20807;-45
2021/03/31 00:45:04;;;;;;;34.80;19.30;;;12.60;99.90;;;;;;5051897;28;20472;-45
2021/03/31 00:47:30;;;;;;;29.80;19.97;;;12.60;99.90;;;;;;5051912;28;20515;-45
2021/03/31 00:49:57;;;;;;;28.43;18.30;;;12.20;99.90;;;;;;5051914;28;20796;-44
2021/03/31 00:52:25;;;;;;;34.33;20.07;;;12.30;99.90;;;;;;5051351;28;20514;-44
2021/03/31 00:54:51;;;;;;;27.73;19.67;;;12.10;99.90;;;;;;5050352;28;20503;-45
2021/03/31 00:57:18;;;;;;;29.37;18.50;;;12.50;99.90;;;;;;5051555;28;20866;-45
2021/03/31 00:59:45;;;;;;;27.03;19.83;;;12.40;99.90;;;;;;5051618;28;20428;-44
2021/03/31 01:02:11;;;;;;;29.03;19.30;;;12.30;99.90;;;;;;5051559;28;20443;-46
2021/03/31 01:04:37;;;;;;;31.60;20.00;;;12.70;99.90;;;;;;5050508;28;20463;-46
2021/03/31 01:07:05;;;;;;;28.20;19.20;;;12.30;99.90;;;;;;5051771;28;20441;-45
2021/03/31 01:09:31;;;;;;;27.77;18.77;;;12.10;99.90;;;;;;5051494;28;20454;-45
2021/03/31 01:12:06;;;;;;;26.60;17.77;;;12.20;99.90;;;;;;5051495;28;20586;-44
2021/03/31 01:14:49;;;;;;;28.77;19.10;;;11.90;99.90;;;;;;5051368;28;20486;-44
2021/03/31 01:17:22;;;;;;;27.53;18.40;;;12.00;99.90;;;;;;5051576;28;20448;-45
2021/03/31 01:20:12;;;;;;;29.30;19.10;;;12.00;99.90;;;;;;5052178;28;20428;-44
2021/03/31 01:23:13;;;;;;;27.90;19.73;;;11.90;99.90;;;;;;5055339;28;20434;-45
2021/03/31 01:25:45;;;;;;;26.37;19.10;;;12.40;99.90;;;;;;5055533;28;20445;-45
2021/03/31 01:28:47;;;;;;;27.20;18.93;;;11.50;99.90;;;;;;5055761;28;20461;-43
2021/03/31 01:31:26;;;;;;;26.97;18.33;;;11.90;99.90;;;;;;5052099;28;20531;-44
2021/03/31 01:34:11;;;;;;;27.57;19.30;;;11.90;99.90;;;;;;5053972;28;21024;-44
2021/03/31 01:36:40;;;;;;;26.73;20.60;;;11.90;99.90;;;;;;5055504;28;20438;-45
2021/03/31 01:39:09;;;;;;;23.93;18.50;;;11.90;99.90;;;;;;5055253;28;20520;-44
2021/03/31 01:41:37;;;;;;;25.93;17.83;;;11.80;99.90;;;;;;5055251;28;20440;-44
2021/03/31 01:44:08;;;;;;;28.60;18.97;;;11.70;99.90;;;;;;5054864;28;20475;-45
2021/03/31 01:46:37;;;;;;;22.80;18.60;;;11.60;99.90;;;;;;5055261;28;20435;-44
2021/03/31 01:49:06;;;;;;;29.37;18.40;;;12.10;99.90;;;;;;5055101;28;20490;-44
2021/03/31 01:51:34;;;;;;;33.13;21.40;;;12.00;99.90;;;;;;5054967;28;20501;-45
2021/03/31 01:54:02;;;;;;;32.00;19.63;;;12.10;99.90;;;;;;5054689;28;20842;-45
2021/03/31 01:56:29;;;;;;;24.13;17.70;;;11.90;99.90;;;;;;5055209;28;20445;-44
2021/03/31 01:58:56;;;;;;;25.97;19.83;;;12.00;99.90;;;;;;5054956;28;20962;-45
2021/03/31 02:01:23;;;;;;;26.50;19.40;;;11.80;99.90;;;;;;5054945;28;20434;-44
2021/03/31 02:03:53;;;;;;;28.00;20.00;;;11.70;99.90;;;;;;5054447;28;20409;-44
2021/03/31 02:06:20;;;;;;;32.00;20.40;;;11.80;99.90;;;;;;5054767;28;20430;-44
2021/03/31 02:08:48;;;;;;;28.77;20.40;;;11.90;99.90;;;;;;5054884;28;20449;-44
2021/03/31 02:11:16;;;;;;;26.73;18.53;;;11.50;99.90;;;;;;5054826;28;20825;-45
2021/03/31 02:13:47;;;;;;;26.83;19.63;;;11.50;99.90;;;;;;5054170;28;20515;-44
2021/03/31 02:16:14;;;;;;;36.63;21.43;;;11.40;99.90;;;;;;5054768;28;20489;-44
2021/03/31 02:18:41;;;;;;;30.20;19.70;;;11.70;99.90;;;;;;5054417;28;20915;-45
2021/03/31 02:21:08;;;;;;;27.77;18.80;;;11.70;99.90;;;;;;5055017;28;20476;-44
2021/03/31 02:23:37;;;;;;;33.03;20.90;;;11.50;99.90;;;;;;5053078;28;20438;-45
2021/03/31 02:26:04;;;;;;;25.73;19.10;;;11.40;99.90;;;;;;5054367;28;20443;-44
2021/03/31 02:28:31;;;;;;;30.23;20.03;;;11.50;99.90;;;;;;5052592;28;20474;-44
2021/03/31 02:30:58;;;;;;;27.00;20.03;;;11.90;99.90;;;;;;5052816;28;20474;-44
2021/03/31 02:33:27;;;;;;;29.03;19.50;;;11.40;99.90;;;;;;5054406;28;20656;-44
2021/03/31 02:35:54;;;;;;;34.20;20.80;;;11.30;99.90;;;;;;5054968;28;20927;-44
2021/03/31 02:38:21;;;;;;;32.07;20.40;;;11.10;99.90;;;;;;5054489;28;20509;-44
2021/03/31 02:40:49;;;;;;;29.37;21.20;;;11.20;99.90;;;;;;5054498;28;20463;-44
2021/03/31 02:43:19;;;;;;;26.17;19.10;;;11.80;99.90;;;;;;5054207;28;20431;-44
2021/03/31 02:45:50;;;;;;;32.57;21.17;;;11.20;99.90;;;;;;5055127;28;20439;-45
2021/03/31 02:48:18;;;;;;;31.73;22.33;;;11.10;99.90;;;;;;5054518;28;20535;-45
2021/03/31 02:50:46;;;;;;;30.33;20.80;;;11.20;99.90;;;;;;5054198;28;20457;-45
2021/03/31 02:53:15;;;;;;;32.10;19.97;;;11.30;99.90;;;;;;5053849;28;20419;-45
2021/03/31 02:55:42;;;;;;;35.17;21.50;;;11.20;99.90;;;;;;5054005;28;20443;-45
2021/03/31 02:58:10;;;;;;;34.70;20.33;;;11.30;99.90;;;;;;5053987;28;20443;-44
2021/03/31 03:00:37;;;;;;;29.13;19.93;;;11.30;99.90;;;;;;5054018;28;20439;-45
2021/03/31 03:03:05;;;;;;;31.60;20.30;;;11.10;99.90;;;;;;5053684;28;20450;-45
2021/03/31 03:05:32;;;;;;;32.13;20.43;;;11.20;99.90;;;;;;5053770;28;20462;-45
2021/03/31 03:07:58;;;;;;;28.37;20.37;;;11.20;99.90;;;;;;5053513;28;20466;-44
2021/03/31 03:10:25;;;;;;;29.23;20.03;;;11.10;99.90;;;;;;5052163;28;20438;-44
2021/03/31 03:12:54;;;;;;;28.90;19.10;;;11.00;99.90;;;;;;5053512;28;20424;-44
2021/03/31 03:15:23;;;;;;;35.90;22.07;;;11.10;99.90;;;;;;5052426;28;20824;-44
2021/03/31 03:17:49;;;;;;;27.20;19.00;;;10.40;99.90;;;;;;5053526;28;20542;-45
2021/03/31 03:20:18;;;;;;;29.40;19.50;;;10.70;99.90;;;;;;5053749;28;20499;-45
2021/03/31 03:22:46;;;;;;;37.37;20.53;;;11.00;99.90;;;;;;5053274;28;20476;-44
2021/03/31 03:25:14;;;;;;;29.60;21.17;;;10.60;99.90;;;;;;5052194;28;20522;-45
2021/03/31 03:27:42;;;;;;;28.73;21.17;;;11.10;99.90;;;;;;5053335;28;20508;-45
2021/03/31 03:30:12;;;;;;;33.33;20.30;;;11.10;99.90;;;;;;5053573;28;20469;-45
2021/03/31 03:32:40;;;;;;;33.27;22.17;;;11.00;99.90;;;;;;5053137;28;20485;-45
2021/03/31 03:35:09;;;;;;;37.20;21.57;;;10.60;99.90;;;;;;5053386;28;20521;-45
2021/03/31 03:37:38;;;;;;;34.53;21.43;;;10.80;99.90;;;;;;5053151;28;20494;-45
2021/03/31 03:40:05;;;;;;;28.30;19.90;;;10.80;99.90;;;;;;5053245;28;20788;-44
2021/03/31 03:42:32;;;;;;;27.10;20.00;;;10.90;99.90;;;;;;5052248;28;20784;-45
2021/03/31 03:45:01;;;;;;;32.17;21.20;;;10.70;99.90;;;;;;5053304;28;20423;-45
2021/03/31 03:47:28;;;;;;;30.17;21.03;;;10.80;99.90;;;;;;5053220;28;20549;-45
2021/03/31 03:49:54;;;;;;;32.93;21.00;;;10.90;99.90;;;;;;5053371;28;20450;-45
2021/03/31 03:52:21;;;;;;;35.73;20.63;;;10.80;99.90;;;;;;5052452;28;20514;-45
2021/03/31 03:54:51;;;;;;;28.27;20.07;;;10.70;99.90;;;;;;5052670;28;20927;-45
2021/03/31 03:57:22;;;;;;;30.80;20.00;;;10.70;99.90;;;;;;5052524;28;20438;-45
2021/03/31 03:59:49;;;;;;;37.00;20.10;;;10.50;99.90;;;;;;5051414;28;20823;-45
2021/03/31 04:02:15;;;;;;;35.13;20.33;;;11.00;99.90;;;;;;5052562;28;20427;-45
2021/03/31 04:04:41;;;;;;;34.13;21.27;;;10.60;99.90;;;;;;5053107;28;20503;-45
2021/03/31 04:07:07;;;;;;;34.33;20.90;;;10.60;99.90;;;;;;5052371;28;20430;-45
2021/03/31 04:09:34;;;;;;;34.90;20.90;;;10.50;99.90;;;;;;5052548;28;20923;-45
2021/03/31 04:12:02;;;;;;;30.93;23.13;;;10.20;99.90;;;;;;5052550;28;20520;-45
2021/03/31 04:14:30;;;;;;;32.77;23.10;;;11.10;99.90;;;;;;5052139;28;20803;-45
2021/03/31 04:16:57;;;;;;;31.07;22.83;;;10.50;99.90;;;;;;5052674;28;20438;-45
2021/03/31 04:19:24;;;;;;;37.80;22.10;;;10.80;99.90;;;;;;5052503;28;20458;-45
2021/03/31 04:21:51;;;;;;;40.23;21.90;;;9.90;99.90;;;;;;5052504;28;20434;-46
2021/03/31 04:24:17;;;;;;;41.20;22.63;;;10.30;99.90;;;;;;5050668;28;20442;-45
2021/03/31 04:26:45;;;;;;;34.33;21.70;;;10.40;99.90;;;;;;5052322;28;20787;-45
2021/03/31 04:29:13;;;;;;;37.83;21.57;;;10.40;99.90;;;;;;5051937;28;20508;-46
2021/03/31 04:31:39;;;;;;;40.70;21.83;;;10.80;99.90;;;;;;5051937;28;20539;-45
2021/03/31 04:34:08;;;;;;;38.63;20.53;;;10.50;99.90;;;;;;5051803;28;20434;-45
2021/03/31 04:36:35;;;;;;;66.93;43.73;;;10.20;99.90;;;;;;5051961;28;20433;-45
2021/03/31 04:39:03;;;;;;;37.10;22.00;;;11.00;99.90;;;;;;5052292;28;20466;-45
2021/03/31 04:41:30;;;;;;;39.50;22.83;;;10.80;99.90;;;;;;5052460;28;20417;-44
2021/03/31 04:43:56;;;;;;;32.63;22.30;;;10.50;99.90;;;;;;5052936;28;20430;-44
2021/03/31 04:46:23;;;;;;;43.80;23.80;;;10.50;99.90;;;;;;5053926;28;20493;-44
2021/03/31 04:48:49;;;;;;;53.43;23.90;;;11.00;99.90;;;;;;5052222;28;20524;-44
2021/03/31 04:51:15;;;;;;;42.33;21.70;;;10.60;99.90;;;;;;5052657;28;20478;-44
2021/03/31 04:53:42;;;;;;;48.13;24.07;;;10.20;99.90;;;;;;5052597;28;20453;-44
2021/03/31 04:56:08;;;;;;;46.10;24.83;;;10.50;99.90;;;;;;5051514;28;20442;-44
2021/03/31 04:58:35;;;;;;;43.80;24.33;;;10.60;99.90;;;;;;5053476;28;20959;-43
2021/03/31 05:01:01;;;;;;;37.33;23.00;;;10.30;99.90;;;;;;5052710;28;20435;-43
2021/03/31 05:03:29;;;;;;;39.07;22.40;;;10.30;99.90;;;;;;5051485;28;20629;-44
2021/03/31 05:05:55;;;;;;;50.87;23.67;;;10.60;99.90;;;;;;5052562;28;20421;-43
2021/03/31 05:08:22;;;;;;;48.23;24.33;;;10.80;99.90;;;;;;5051860;28;20425;-45
2021/03/31 05:10:48;;;;;;;40.73;22.50;;;10.60;99.90;;;;;;5051896;28;20511;-44
2021/03/31 05:13:14;;;;;;;36.43;21.57;;;10.70;99.90;;;;;;5051249;28;20438;-45
2021/03/31 05:15:41;;;;;;;37.13;23.00;;;10.10;99.90;;;;;;5051477;28;20928;-44
2021/03/31 05:18:07;;;;;;;50.43;26.20;;;11.10;99.90;;;;;;5051805;28;20442;-44
2021/03/31 05:20:35;;;;;;;42.13;23.90;;;10.60;99.90;;;;;;5052523;28;20435;-45
2021/03/31 05:23:01;;;;;;;46.67;22.90;;;10.70;99.90;;;;;;5051860;28;20440;-44
2021/03/31 05:25:27;;;;;;;39.53;23.03;;;11.00;99.90;;;;;;5052940;28;20434;-44
2021/03/31 05:27:54;;;;;;;47.73;22.93;;;10.80;99.90;;;;;;5050537;28;20528;-45
2021/03/31 05:30:22;;;;;;;34.93;23.30;;;11.20;99.90;;;;;;5051744;28;20483;-44
2021/03/31 05:32:48;;;;;;;44.23;23.60;;;11.00;99.90;;;;;;5051323;28;21003;-44
2021/03/31 05:35:15;;;;;;;42.60;25.80;;;10.60;99.90;;;;;;5052108;28;20804;-45
2021/03/31 05:37:42;;;;;;;46.80;24.87;;;11.20;99.90;;;;;;5051276;28;20474;-44
2021/03/31 05:40:10;;;;;;;34.13;25.10;;;11.00;99.90;;;;;;5051403;28;20939;-44
2021/03/31 05:42:37;;;;;;;35.40;24.50;;;11.30;99.90;;;;;;5050774;28;20446;-44
2021/03/31 05:45:07;;;;;;;35.33;24.77;;;10.90;99.90;;;;;;5051201;28;20427;-45
2021/03/31 05:47:36;;;;;;;39.50;25.87;;;11.40;99.90;;;;;;5051376;28;20450;-44
2021/03/31 05:50:04;;;;;;;45.80;26.37;;;11.40;99.90;;;;;;5050823;28;20472;-45
2021/03/31 05:52:30;;;;;;;42.87;26.40;;;11.30;99.90;;;;;;5052070;28;20486;-44
2021/03/31 05:54:57;;;;;;;43.33;26.47;;;11.30;99.90;;;;;;5051266;28;20435;-44
2021/03/31 05:57:26;;;;;;;28.67;23.37;;;11.50;99.90;;;;;;5051165;28;20496;-44
2021/03/31 05:59:53;;;;;;;41.73;26.80;;;11.40;99.90;;;;;;5051092;28;20453;-45
2021/03/31 06:02:20;;;;;;;40.43;25.43;;;11.50;99.90;;;;;;5051193;28;20430;-44
2021/03/31 06:04:47;;;;;;;37.13;23.60;;;11.70;99.90;;;;;;5050790;28;20438;-45
2021/03/31 06:07:13;;;;;;;31.67;23.37;;;11.70;99.90;;;;;;5053026;28;20426;-46
2021/03/31 06:10:10;;;;;;;31.70;22.80;;;11.80;99.90;;;;;;5054178;28;20532;-46
2021/03/31 06:12:38;;;;;;;24.77;21.60;;;12.20;99.90;;;;;;5052537;28;20482;-45
2021/03/31 06:15:16;;;;;;;24.93;20.27;;;12.10;99.90;;;;;;5052024;28;20455;-45
2021/03/31 06:17:45;;;;;;;25.40;20.50;;;12.30;99.90;;;;;;5053994;28;20898;-45
2021/03/31 06:20:39;;;;;;;26.27;19.73;;;12.20;99.90;;;;;;5053826;28;20529;-45
2021/03/31 06:23:10;;;;;;;30.00;21.90;;;12.30;99.90;;;;;;5053926;28;20428;-46
2021/03/31 06:25:45;;;;;;;26.33;17.73;;;12.80;99.90;;;;;;5054321;28;20859;-45
2021/03/31 06:28:11;;;;;;;25.90;19.03;;;12.50;99.90;;;;;;5052756;28;21129;-45
2021/03/31 06:30:38;;;;;;;28.40;20.00;;;12.40;99.90;;;;;;5053946;28;20487;-45
2021/03/31 06:33:05;;;;;;;24.13;18.67;;;12.80;99.90;;;;;;5053281;28;20437;-46
2021/03/31 06:35:31;;;;;;;31.40;19.40;;;12.60;99.90;;;;;;5053911;28;20435;-46
2021/03/31 06:38:05;;;;;;;28.97;19.70;;;12.90;99.90;;;;;;5053503;28;20988;-46
2021/03/31 06:40:37;;;;;;;24.23;18.40;;;12.70;99.90;;;;;;5053821;28;20435;-46
2021/03/31 06:43:15;;;;;;;23.90;19.63;;;13.30;99.90;;;;;;5053054;28;20493;-46
2021/03/31 06:45:51;;;;;;;25.40;19.63;;;13.30;99.90;;;;;;5053468;28;20443;-45
2021/03/31 06:48:18;;;;;;;33.70;21.57;;;13.60;99.90;;;;;;5052976;28;20560;-45
2021/03/31 06:50:44;;;;;;;25.93;19.80;;;13.10;99.90;;;;;;5052810;28;21001;-45
2021/03/31 06:53:10;;;;;;;26.57;17.00;;;13.40;99.90;;;;;;5052766;28;20437;-46
2021/03/31 06:55:37;;;;;;;26.13;18.97;;;13.10;99.90;;;;;;5053068;28;20436;-46
2021/03/31 06:58:05;;;;;;;30.37;19.13;;;13.50;99.90;;;;;;5052690;28;20469;-45
2021/03/31 07:00:33;;;;;;;30.13;18.33;;;13.30;99.90;;;;;;5053112;28;20485;-45
2021/03/31 07:03:03;;;;;;;20.93;16.73;;;13.40;99.90;;;;;;5052834;28;20415;-45
2021/03/31 07:05:30;;;;;;;23.80;18.00;;;13.60;99.90;;;;;;5053438;28;20441;-45
2021/03/31 07:08:05;;;;;;;28.60;19.97;;;13.60;99.90;;;;;;5052807;28;20456;-45
2021/03/31 07:10:41;;;;;;;27.73;19.47;;;13.30;99.90;;;;;;5053183;28;20920;-45
2021/03/31 07:13:08;;;;;;;40.17;20.03;;;13.70;99.90;;;;;;5052680;28;20433;-45
2021/03/31 07:15:37;;;;;;;35.00;19.13;;;13.70;99.90;;;;;;5053187;28;20955;-45
2021/03/31 07:18:04;;;;;;;25.87;17.63;;;13.60;99.90;;;;;;5051902;28;20855;-45
2021/03/31 07:20:32;;;;;;;27.23;18.13;;;13.90;99.90;;;;;;5052711;28;20911;-45
2021/03/31 07:23:01;;;;;;;29.13;18.70;;;13.80;99.90;;;;;;5051994;28;20473;-45
2021/03/31 07:25:28;;;;;;;22.37;16.53;;;13.80;99.90;;;;;;5052554;28;20975;-45
2021/03/31 07:27:57;;;;;;;27.40;18.80;;;13.90;99.90;;;;;;5052402;28;20498;-46
2021/03/31 07:30:26;;;;;;;31.97;19.27;;;14.00;99.90;;;;;;5052543;28;20430;-45
2021/03/31 07:32:58;;;;;;;27.40;16.50;;;13.90;99.90;;;;;;5051969;28;20481;-46
2021/03/31 07:35:27;;;;;;;30.80;19.53;;;14.10;99.90;;;;;;5052550;28;20523;-44
2021/03/31 07:37:56;;;;;;;24.70;18.17;;;14.30;99.90;;;;;;5051983;28;20497;-45
2021/03/31 07:40:23;;;;;;;24.53;17.90;;;14.10;99.90;;;;;;5050719;28;20447;-45
2021/03/31 07:42:54;;;;;;;24.83;18.30;;;14.20;99.90;;;;;;5052126;28;20446;-44
2021/03/31 07:45:25;;;;;;;26.13;18.23;;;14.80;99.90;;;;;;5052217;28;20430;-45
2021/03/31 07:47:54;;;;;;;29.90;16.53;;;14.80;99.90;;;;;;5052288;28;20475;-46
2021/03/31 07:50:21;;;;;;;29.20;17.93;;;14.30;99.90;;;;;;5052578;28;20424;-45
2021/03/31 07:52:53;;;;;;;28.30;17.40;;;14.50;99.90;;;;;;5051907;28;20991;-45
2021/03/31 07:55:34;;;;;;;28.97;18.13;;;14.10;99.90;;;;;;5052023;28;20434;-45
2021/03/31 07:58:25;;;;;;;27.73;17.97;;;14.50;99.90;;;;;;5051924;28;20485;-45
2021/03/31 08:00:57;;;;;;;25.10;16.60;;;14.50;99.90;;;;;;5051194;28;20439;-46
2021/03/31 08:03:26;;;;;;;54.60;21.57;;;14.40;99.90;;;;;;5050127;28;20444;-46
2021/03/31 08:06:08;;;;;;;33.00;17.80;;;14.60;99.90;;;;;;5051640;28;20508;-46
2021/03/31 08:08:37;;;;;;;25.80;17.00;;;14.90;99.90;;;;;;5051494;28;20457;-46
2021/03/31 08:11:04;;;;;;;31.60;16.83;;;14.70;99.90;;;;;;5051653;28;20426;-46
2021/03/31 08:13:32;;;;;;;23.50;16.33;;;14.90;99.90;;;;;;5050204;28;20773;-46
2021/03/31 08:16:01;;;;;;;26.20;18.67;;;15.00;99.90;;;;;;5052217;28;20441;-46
2021/03/31 08:18:29;;;;;;;27.63;15.77;;;15.40;99.90;;;;;;5051865;28;20456;-46
2021/03/31 08:20:56;;;;;;;26.27;17.20;;;14.90;99.90;;;;;;5051809;28;20500;-46
2021/03/31 08:23:47;;;;;;;24.80;16.60;;;15.00;99.90;;;;;;5050548;28;20407;-46
2021/03/31 08:26:28;;;;;;;22.63;16.63;;;15.10;99.90;;;;;;5051431;28;20440;-45
2021/03/31 08:28:55;;;;;;;26.73;16.80;;;15.30;99.90;;;;;;5051402;28;20487;-45
2021/03/31 08:31:24;;;;;;;23.57;17.57;;;15.40;99.90;;;;;;5049920;28;20476;-45
2021/03/31 08:33:52;;;;;;;24.13;16.97;;;15.00;99.90;;;;;;5051095;28;20763;-46
2021/03/31 08:36:19;;;;;;;25.83;16.20;;;15.30;99.90;;;;;;5051803;28;20588;-45
2021/03/31 08:38:53;;;;;;;28.73;16.33;;;15.50;99.90;;;;;;5051217;28;20960;-45
2021/03/31 08:41:22;;;;;;;25.20;16.10;;;15.50;99.90;;;;;;5051167;28;20426;-45
2021/03/31 08:43:50;;;;;;;29.87;17.67;;;15.70;99.90;;;;;;5050343;28;20439;-46
2021/03/31 08:46:31;;;;;;;25.57;16.90;;;15.50;99.90;;;;;;5050901;28;20482;-46
2021/03/31 08:48:59;;;;;;;41.93;20.60;;;15.60;99.90;;;;;;5048845;28;20555;-46
2021/03/31 08:51:25;;;;;;;28.43;17.50;;;15.70;99.90;;;;;;5051221;28;20477;-45
2021/03/31 08:53:52;;;;;;;28.30;17.07;;;15.70;99.90;;;;;;5050893;28;20434;-45
2021/03/31 08:56:19;;;;;;;23.00;16.00;;;16.60;99.90;;;;;;5051244;28;20468;-45
2021/03/31 08:58:48;;;;;;;30.90;16.50;;;15.90;99.90;;;;;;5050875;28;20425;-45
2021/03/31 09:01:24;;;;;;;25.60;17.90;;;16.20;99.90;;;;;;5050752;28;20936;-45
2021/03/31 09:03:51;;;;;;;27.30;17.40;;;16.00;99.90;;;;;;5050385;28;20426;-46
2021/03/31 09:06:19;;;;;;;31.03;16.00;;;16.00;99.90;;;;;;5050857;28;20435;-46
2021/03/31 09:08:46;;;;;;;23.20;16.27;;;16.30;99.90;;;;;;5050980;28;20883;-46
2021/03/31 09:11:17;;;;;;;25.37;15.30;;;16.00;99.90;;;;;;5050766;28;20978;-46
2021/03/31 09:13:43;;;;;;;30.80;17.50;;;16.20;99.90;;;;;;5049071;28;20966;-46
2021/03/31 09:16:13;;;;;;;29.30;15.70;;;16.00;99.90;;;;;;5050813;28;20443;-45
2021/03/31 09:18:42;;;;;;;27.27;16.53;;;16.40;99.90;;;;;;5050295;28;20536;-45
2021/03/31 09:21:11;;;;;;;29.03;16.30;;;16.70;99.90;;;;;;5050774;28;20484;-46
2021/03/31 09:23:44;;;;;;;26.67;15.73;;;16.70;99.40;;;;;;5050034;28;20882;-45
2021/03/31 09:26:12;;;;;;;26.03;17.13;;;16.60;99.50;;;;;;5050961;28;20423;-46
2021/03/31 09:28:38;;;;;;;29.27;16.73;;;16.50;98.70;;;;;;5050466;28;20545;-45
2021/03/31 09:31:09;;;;;;;29.40;18.47;;;16.80;98.60;;;;;;5049196;28;20438;-45
2021/03/31 09:33:42;;;;;;;26.97;18.00;;;16.70;98.30;;;;;;5050625;28;20415;-46
2021/03/31 09:36:12;;;;;;;26.20;17.53;;;16.80;98.10;;;;;;5050900;28;20977;-46
2021/03/31 09:38:40;;;;;;;33.00;19.50;;;16.80;98.00;;;;;;5050003;28;20520;-46
2021/03/31 09:41:07;;;;;;;27.07;18.80;;;17.10;97.30;;;;;;5051592;28;20537;-46
2021/03/31 09:43:33;;;;;;;28.20;18.63;;;16.60;95.90;;;;;;5054130;28;20496;-46
2021/03/31 09:46:00;;;;;;;31.47;20.13;;;17.10;94.90;;;;;;5054524;28;20449;-44
2021/03/31 09:48:28;;;;;;;35.80;19.33;;;17.30;94.10;;;;;;5054211;28;20488;-47
2021/03/31 09:50:55;;;;;;;27.43;19.63;;;17.20;93.50;;;;;;5054475;28;20819;-46
2021/03/31 09:53:23;;;;;;;30.60;17.40;;;17.10;92.70;;;;;;5053866;28;20549;-46
2021/03/31 09:55:52;;;;;;;31.53;19.63;;;17.30;92.10;;;;;;5054130;28;20465;-46
2021/03/31 09:58:23;;;;;;;33.73;20.90;;;17.30;90.60;;;;;;5053976;28;20883;-47
2021/03/31 10:00:51;;;;;;;28.43;20.17;;;17.40;90.00;;;;;;5054218;28;20458;-46
2021/03/31 10:03:18;;;;;;;28.67;18.70;;;17.60;88.80;;;;;;5053856;28;20430;-46
2021/03/31 10:05:45;;;;;;;29.53;19.80;;;17.50;87.10;;;;;;5054043;28;20457;-46
2021/03/31 10:08:20;;;;;;;34.20;20.03;;;17.70;85.00;;;;;;5053838;28;20451;-46
2021/03/31 10:10:48;;;;;;;30.80;18.87;;;17.60;83.50;;;;;;5053936;28;20435;-46
2021/03/31 10:13:17;;;;;;;31.93;19.40;;;17.70;80.80;;;;;;5053649;28;21057;-46
2021/03/31 10:15:46;;;;;;;28.33;19.93;;;17.80;79.10;;;;;;5053696;28;20436;-45
2021/03/31 10:18:13;;;;;;;31.30;19.80;;;17.80;77.30;;;;;;5053415;28;20457;-47
2021/03/31 10:20:47;;;;;;;31.70;18.37;;;17.70;76.20;;;;;;5052235;28;20515;-46
2021/03/31 10:23:30;;;;;;;28.00;19.50;;;18.00;74.70;;;;;;5053276;28;20474;-46
2021/03/31 10:26:21;;;;;;;31.13;19.07;;;18.40;74.20;;;;;;5051678;28;20509;-47
2021/03/31 10:28:48;;;;;;;31.90;17.93;;;18.00;72.50;;;;;;5062694;28;20472;-46
2021/03/31 10:31:24;;;;;;;34.53;22.00;;;18.30;73.80;;;;;;5060287;28;20445;-46
2021/03/31 10:33:50;;;;;;;30.83;17.83;;;18.00;72.10;;;;;;5053416;28;20968;-45
2021/03/31 10:36:46;;;;;;;26.47;16.20;;;18.20;71.80;;;;;;5072692;28;20443;-46
2021/03/31 10:48:39;;;;;;;26.87;18.90;;;18.20;68.00;;;;;;5032693;28;20778;-45
2021/03/31 10:51:12;;;;;;;32.10;17.23;;;18.60;68.30;;;;;;5033561;28;20446;-45
2021/03/31 10:53:43;;;;;;;28.47;16.40;;;18.40;68.00;;;;;;5033178;28;20427;-45
2021/03/31 10:56:10;;;;;;;29.63;14.63;;;18.70;67.40;;;;;;5033413;28;20931;-45
2021/03/31 10:58:36;;;;;;;25.23;16.17;;;18.50;65.70;;;;;;5032857;28;20557;-46
2021/03/31 11:01:04;;;;;;;25.87;16.33;;;18.80;66.00;;;;;;5033759;28;20440;-45
2021/03/31 11:03:30;;;;;;;25.77;15.70;;;18.50;65.20;;;;;;5033485;28;20474;-43
2021/03/31 11:05:57;;;;;;;24.70;15.40;;;18.80;65.40;;;;;;5032565;28;20466;-47
2021/03/31 11:08:24;;;;;;;38.60;17.40;;;18.80;65.10;;;;;;5033824;28;20445;-46
2021/03/31 11:10:50;;;;;;;26.50;15.77;;;19.00;64.10;;;;;;5033673;28;20447;-45
2021/03/31 11:13:17;;;;;;;23.57;15.60;;;19.30;61.50;;;;;;5032891;28;20959;-46
2021/03/31 11:15:43;;;;;;;30.03;15.80;;;19.30;63.00;;;;;;5033183;28;20438;-46
2021/03/31 11:18:22;;;;;;;22.97;15.03;;;19.20;62.90;;;;;;5032328;28;20455;-46
2021/03/31 11:21:05;;;;;;;20.20;13.93;;;19.30;63.00;;;;;;5031509;28;21083;-45
2021/03/31 11:26:13;;;;;;;21.50;14.60;;;18.90;59.50;;;;;;5020752;28;20483;-45
2021/03/31 11:28:39;;;;;;;20.60;13.50;;;19.30;59.60;;;;;;5032073;28;20471;-45
2021/03/31 11:31:06;;;;;;;22.47;14.43;;;19.10;59.00;;;;;;5032898;28;20500;-46
2021/03/31 11:33:33;;;;;;;21.63;14.00;;;19.50;59.70;;;;;;5032288;28;20427;-45
2021/03/31 11:36:00;;;;;;;22.03;13.43;;;19.50;59.60;;;;;;5032672;28;20450;-45
2021/03/31 11:38:27;;;;;;;23.00;14.87;;;19.50;59.10;;;;;;5032090;28;20467;-44
2021/03/31 11:40:53;;;;;;;20.50;12.77;;;19.40;59.00;;;;;;5032219;28;20443;-45
2021/03/31 11:43:20;;;;;;;19.30;11.77;;;19.50;58.40;;;;;;5030895;28;20492;-45
2021/03/31 11:45:47;;;;;;;19.67;10.83;;;19.40;56.90;;;;;;5032282;28;20434;-44
2021/03/31 11:48:14;;;;;;;17.10;11.03;;;19.40;56.90;;;;;;5032156;28;20505;-45
2021/03/31 11:50:42;;;;;;;18.33;12.20;;;19.60;57.10;;;;;;5032031;28;20435;-45
2021/03/31 11:53:09;;;;;;;18.17;10.90;;;19.50;57.10;;;;;;5030141;28;20487;-45
2021/03/31 11:55:35;;;;;;;23.53;12.40;;;19.60;57.10;;;;;;5032209;28;20435;-44
2021/03/31 11:58:02;;;;;;;15.70;11.97;;;19.50;56.10;;;;;;5031716;28;20997;-45
2021/03/31 12:00:28;;;;;;;17.60;11.27;;;19.70;55.90;;;;;;5030621;28;20455;-45
2021/03/31 12:02:55;;;;;;;17.43;11.53;;;19.70;55.40;;;;;;5031520;28;20430;-45
2021/03/31 12:05:22;;;;;;;17.50;11.50;;;19.90;55.70;;;;;;5031080;28;20527;-45
2021/03/31 12:07:49;;;;;;;18.00;11.43;;;20.00;54.90;;;;;;5031195;28;20498;-45
2021/03/31 12:10:16;;;;;;;15.33;10.93;;;19.80;54.30;;;;;;5031296;28;20438;-45
2021/03/31 12:12:43;;;;;;;15.80;11.30;;;19.90;54.40;;;;;;5030931;28;20482;-47
2021/03/31 12:15:12;;;;;;;16.93;11.30;;;19.70;54.10;;;;;;5031440;28;20461;-45
2021/03/31 12:17:39;;;;;;;19.50;11.60;;;19.80;54.10;;;;;;5031625;28;20525;-45
2021/03/31 12:20:09;;;;;;;16.33;10.47;;;20.00;53.80;;;;;;5030925;28;20432;-44
2021/03/31 12:22:35;;;;;;;13.17;9.63;;;20.20;53.30;;;;;;5030855;28;20951;-44
2021/03/31 12:25:03;;;;;;;18.27;10.30;;;19.90;53.40;;;;;;5031745;28;20493;-44
2021/03/31 12:27:32;;;;;;;17.37;10.23;;;19.80;53.00;;;;;;5032364;28;20459;-44
2021/03/31 12:30:00;;;;;;;23.10;11.60;;;19.80;52.90;;;;;;5031835;28;20439;-44
2021/03/31 12:32:27;;;;;;;14.23;8.53;;;20.00;53.00;;;;;;5031025;28;20540;-45
2021/03/31 12:34:53;;;;;;;18.10;9.57;;;19.70;52.30;;;;;;5030182;28;20532;-45
2021/03/31 12:37:22;;;;;;;27.43;10.43;;;19.80;52.30;;;;;;5031114;28;20983;-45
2021/03/31 12:39:49;;;;;;;14.70;9.47;;;20.10;51.40;;;;;;5032793;28;20428;-45
2021/03/31 12:42:16;;;;;;;16.60;9.40;;;20.20;51.80;;;;;;5030707;28;20440;-45
2021/03/31 12:44:43;;;;;;;17.27;9.40;;;20.20;51.40;;;;;;5030793;28;20917;-46
2021/03/31 12:47:11;;;;;;;15.17;10.03;;;20.20;51.40;;;;;;5031055;28;20463;-46
2021/03/31 12:49:37;;;;;;;21.60;10.37;;;20.40;51.10;;;;;;5030684;28;20428;-47